Latest Weather Observations for Renmark Airport

IDS60801

Issued at 2:32 pm CST Tuesday 28 April 2015 (issued every 30 minutes, with the page automatically refreshed every 10 minutes)

About weather observations | Map of weather stations | Latest weather observations for SA | Other Formats
Station Details ID: 024048 Name: RENMARK AERO Lat: -34.20 Lon: 140.68 Height: 31.5 m
Data from the previous 72 hours. | See also: Recent months at Renmark Airport
Date/Time
CST
Temp
°C
App
Temp
°C
Dew
Point
Rel
Hum
%
Delta-T
°C
Wind Press
QNH
hPa
Press
MSL
hPa
Rain
since 9 am
mm
Dir
 
Spd
km/h
Gust
km/h
Spd
kts
Gust
kts
28/02:30pm 16.7 12.8 3.4 41 6.1 S 13 20 7 11 1027.5 1027.4 0.0
28/02:00pm 16.3 12.1 3.7 43 5.8 S 15 20 8 11 1027.6 1027.6 0.0
28/01:30pm 16.2 12.3 3.6 43 5.8 SSE 13 24 7 13 1027.9 1027.9 0.0
28/01:00pm 15.5 10.6 3.9 46 5.4 S 19 24 10 13 1028.3 1028.3 0.0
28/12:30pm 15.5 10.8 3.3 44 5.5 S 17 24 9 13 1028.7 1028.7 0.0
28/12:00pm 14.9 10.9 4.9 51 4.7 S 15 20 8 11 1029.2 1029.2 0.0
28/11:30am 15.7 12.9 5.3 50 4.9 SSW 9 22 5 12 1029.5 1029.5 0.0
28/11:00am 14.7 10.9 5.8 55 4.2 SSE 15 26 8 14 1029.9 1029.9 0.0
28/10:30am 14.5 11.0 7.1 61 3.6 SSE 15 22 8 12 1030.1 1030.1 0.0
28/10:00am 14.0 10.6 7.5 65 3.2 SSE 15 22 8 12 1030.3 1030.3 0.0
28/09:30am 13.0 10.0 7.5 69 2.7 SSE 13 19 7 10 1030.3 1030.3 0.0
28/09:00am 11.0 7.7 7.9 81 1.5 SE 15 20 8 11 1030.3 1030.3 0.0
28/08:30am 10.4 6.7 8.0 85 1.2 SSE 17 22 9 12 1030.2 1030.2 0.0
28/08:00am 10.0 6.8 8.4 90 0.8 S 15 20 8 11 1029.8 1029.8 0.0
28/07:30am 9.6 6.4 8.5 93 0.5 S 15 19 8 10 1029.6 1029.6 0.0
28/07:00am 9.5 7.1 8.7 95 0.4 S 11 15 6 8 1029.2 1029.2 0.0
28/06:30am 9.5 7.1 8.7 95 0.4 SSW 11 17 6 9 1029.0 1029.0 0.0
28/06:00am 9.7 7.8 8.9 95 0.4 SSW 9 13 5 7 1028.7 1028.7 0.0
28/05:30am 9.9 8.5 8.7 92 0.6 SSW 6 9 3 5 1028.5 1028.5 0.0
28/05:00am 10.1 8.1 8.7 91 0.7 S 9 15 5 8 1028.3 1028.3 0.0
28/04:30am 9.9 9.6 8.7 92 0.6 CALM 0 6 0 3 1028.0 1028.0 0.0
28/04:00am 9.7 8.0 8.3 91 0.7 S 7 11 4 6 1027.8 1027.8 0.0
28/03:30am 10.0 7.5 8.3 89 0.8 S 11 15 6 8 1027.7 1027.7 0.0
28/03:00am 10.2 6.9 8.1 87 1.0 S 15 20 8 11 1027.7 1027.7 0.0
28/02:30am 10.1 6.8 7.9 86 1.1 S 15 20 8 11 1027.9 1027.9 0.0
28/02:00am 10.3 7.0 7.9 85 1.2 S 15 20 8 11 1027.9 1027.9 0.0
28/01:30am 9.8 6.8 7.6 86 1.0 SSW 13 17 7 9 1027.9 1027.9 0.0
28/01:00am 9.9 6.9 7.5 85 1.1 SSW 13 15 7 8 1027.7 1027.7 0.0
28/12:30am 9.9 7.2 7.2 83 1.3 SSW 11 13 6 7 1027.9 1027.9 0.0
28/12:00am 10.7 8.0 7.2 79 1.7 S 11 15 6 8 1027.8 1027.8 0.0
 
Date/Time
CST
Temp
°C
App
Temp
°C
Dew
Point
Rel
Hum
%
Delta-T
°C
Wind Press
QNH
hPa
Press
MSL
hPa
Rain
since 9 am
mm
Dir
 
Spd
km/h
Gust
km/h
Spd
kts
Gust
kts
27/11:30pm 11.2 8.8 6.9 75 2.0 SSW 9 13 5 7 1027.8 1027.8 0.0
27/11:00pm 12.0 9.6 6.9 71 2.4 S 9 13 5 7 1027.9 1027.9 0.0
27/10:30pm 12.7 9.5 6.7 67 2.9 S 13 20 7 11 1028.1 1028.1 0.0
27/10:00pm 13.3 10.0 6.4 63 3.3 S 13 20 7 11 1028.0 1028.0 0.0
27/09:30pm 13.9 11.0 6.7 62 3.5 SW 11 15 6 8 1027.7 1027.7 0.0
27/09:00pm 14.0 11.6 6.8 62 3.5 SSW 9 13 5 7 1027.5 1027.4 0.0
27/08:30pm 14.2 11.3 6.6 60 3.7 SSW 11 15 6 8 1027.4 1027.3 0.0
27/08:00pm 13.8 11.3 6.4 61 3.6 SSW 9 13 5 7 1027.2 1027.1 0.0
27/07:30pm 13.9 11.4 6.7 62 3.5 SSW 9 9 5 5 1027.0 1026.9 0.0
27/07:00pm 14.3 11.8 6.6 60 3.7 SSW 9 11 5 6 1026.9 1026.8 0.0
27/06:30pm 14.8 11.9 6.4 57 4.0 S 11 13 6 7 1026.5 1026.4 0.0
27/06:00pm 15.0 12.1 6.6 57 4.1 S 11 17 6 9 1026.3 1026.2 0.0
27/05:30pm 15.7 12.8 6.7 55 4.4 SSW 11 17 6 9 1026.0 1025.9 0.0
27/05:00pm 15.8 12.7 7.3 57 4.2 SW 13 17 7 9 1025.9 1025.8 0.0
27/04:30pm 15.8 13.4 7.0 56 4.3 SW 9 13 5 7 1025.8 1025.7 0.0
27/04:00pm 15.9 14.0 6.6 54 4.6 SSW 6 13 3 7 1025.8 1025.7 0.0
27/03:30pm 15.5 13.2 7.3 58 4.0 SSE 9 15 5 8 1025.8 1025.7 0.0
27/03:00pm 14.6 9.8 9.0 69 2.8 SSW 24 33 13 18 1026.1 1026.0 0.0
27/02:30pm 14.5 10.3 9.7 73 2.5 S 22 39 12 21 1025.8 1025.7 0.0
27/02:00pm 16.2 13.3 8.2 59 4.1 S 13 44 7 24 1025.7 1025.6 0.0
27/01:30pm 16.5 12.9 8.2 58 4.2 SSE 17 24 9 13 1025.9 1025.8 0.0
27/01:00pm 14.7 10.4 9.3 70 2.8 SSW 22 32 12 17 1026.1 1026.0 0.0
27/12:30pm 15.9 12.0 7.1 56 4.3 SW 17 24 9 13 1026.2 1026.1 0.0
27/12:00pm 15.5 11.7 7.5 59 4.0 SW 17 22 9 12 1026.8 1026.7 0.0
27/11:30am 15.8 12.3 7.0 56 4.3 SSW 15 22 8 12 1027.0 1026.9 0.0
27/11:00am 14.9 12.1 7.0 59 3.9 S 11 17 6 9 1027.3 1027.2 0.0
27/10:30am 14.7 11.3 7.5 62 3.5 SSE 15 22 8 12 1027.6 1027.6 0.0
27/10:00am 14.5 10.5 6.8 60 3.7 SSW 17 24 9 13 1027.6 1027.6 0.0
27/09:30am 14.5 10.5 6.6 59 3.8 SSW 17 26 9 14 1027.5 1027.4 0.0
27/09:00am 14.3 11.7 6.2 58 3.9 SW 9 13 5 7 1027.2 1027.1 0.0
27/08:30am 13.4 10.9 6.5 63 3.3 WSW 9 13 5 7 1027.1 1027.0 0.0
27/08:00am 12.6 9.6 6.2 65 3.0 WSW 11 13 6 7 1027.0 1026.9 0.0
27/07:30am 11.9 9.8 6.0 67 2.7 SW 6 9 3 5 1026.8 1026.7 0.0
27/07:00am 11.5 9.4 5.6 67 2.7 SW 6 9 3 5 1026.5 1026.4 0.0
27/06:30am 11.4 9.1 5.7 68 2.6 WSW 7 9 4 5 1026.3 1026.2 0.0
27/06:00am 11.5 9.1 5.4 66 2.8 WSW 7 9 4 5 1026.1 1026.0 0.0
27/05:30am 11.6 9.4 5.5 66 2.8 SW 6 7 3 4 1025.9 1025.8 0.0
27/05:00am 11.8 9.6 5.2 64 3.0 SW 6 7 3 4 1025.9 1025.8 0.0
27/04:30am 12.2 9.3 4.7 60 3.4 SW 9 11 5 6 1025.6 1025.5 0.0
27/04:00am 12.4 9.5 4.4 58 3.6 SSW 9 11 5 6 1025.4 1025.3 0.0
27/03:30am 12.6 9.6 4.1 56 3.8 S 9 15 5 8 1025.4 1025.3 0.0
27/03:00am 12.5 9.5 4.2 57 3.7 SSW 9 13 5 7 1025.5 1025.4 0.0
27/02:30am 12.7 9.3 4.2 56 3.8 SSW 11 17 6 9 1025.6 1025.5 0.0
27/02:00am 12.6 9.5 3.8 55 4.0 SW 9 13 5 7 1025.7 1025.6 0.0
27/01:30am 12.7 10.0 3.6 54 4.1 SW 7 13 4 7 1025.7 1025.6 0.0
27/01:00am 12.8 9.3 3.7 54 4.1 SSW 11 15 6 8 1025.8 1025.7 0.0
27/12:30am 12.9 9.4 3.6 53 4.1 SSW 11 15 6 8 1025.9 1025.8 0.0
27/12:00am 13.1 9.1 2.9 50 4.5 S 13 19 7 10 1025.9 1025.8 0.0
 
Date/Time
CST
Temp
°C
App
Temp
°C
Dew
Point
Rel
Hum
%
Delta-T
°C
Wind Press
QNH
hPa
Press
MSL
hPa
Rain
since 9 am
mm
Dir
 
Spd
km/h
Gust
km/h
Spd
kts
Gust
kts
26/11:30pm 13.3 8.7 3.9 53 4.2 SSW 17 26 9 14 1026.0 1025.9 0.0
26/11:00pm 13.6 9.5 4.5 54 4.2 SSW 15 24 8 13 1025.9 1025.8 0.0
26/10:30pm 13.6 10.2 4.2 53 4.3 SW 11 17 6 9 1026.0 1025.9 0.0
26/10:00pm 13.7 9.5 3.8 51 4.5 SSW 15 20 8 11 1025.9 1025.8 0.0
26/09:30pm 13.8 9.7 4.1 52 4.4 SSW 15 22 8 12 1025.8 1025.7 0.0
26/09:00pm 13.7 10.5 5.3 57 3.9 SSW 11 15 6 8 1025.7 1025.6 0.0
26/08:30pm 14.0 9.6 4.9 54 4.2 SSW 17 24 9 13 1025.6 1025.5 0.0
26/08:00pm 14.2 9.9 5.3 55 4.2 SSW 17 28 9 15 1025.4 1025.3 0.0
26/07:30pm 14.3 10.2 4.6 52 4.5 SSW 15 20 8 11 1025.1 1025.0 0.0
26/07:00pm 14.5 9.7 4.5 51 4.6 SSW 19 30 10 16 1024.8 1024.7 0.0
26/06:30pm 14.6 10.2 4.6 51 4.6 SSW 17 28 9 15 1024.5 1024.4 0.0
26/06:00pm 15.2 10.5 5.1 51 4.7 SSW 19 28 10 15 1024.0 1023.9 0.0
26/05:30pm 15.2 12.3 8.2 63 3.5 SSW 13 20 7 11 1023.6 1023.5 0.0
26/05:00pm 15.4 10.8 8.2 62 3.6 S 22 33 12 18 1023.4 1023.3 0.0
26/04:30pm 15.8 11.8 8.3 61 3.8 SSW 19 28 10 15 1023.2 1023.1 0.0
26/04:00pm 15.8 10.7 7.8 59 4.0 SSW 24 32 13 17 1023.1 1023.0 0.0
26/03:30pm 16.6 12.1 7.0 53 4.7 SSW 20 28 11 15 1022.7 1022.6 0.0
26/03:00pm 16.7 12.4 7.1 53 4.8 SSW 19 24 10 13 1022.6 1022.5 0.0
26/02:30pm 16.7 12.5 7.4 54 4.6 SSW 19 26 10 14 1022.7 1022.6 0.0
26/02:00pm 16.5 11.8 6.1 50 5.1 SSW 20 32 11 17 1022.7 1022.6 0.0
26/01:30pm 16.3 11.8 6.2 51 4.9 SSW 19 26 10 14 1022.7 1022.6 0.0
26/01:00pm 16.1 11.1 6.3 52 4.8 SSW 22 30 12 16 1022.9 1022.8 0.0
26/12:30pm 15.5 11.2 6.8 56 4.2 SSW 19 28 10 15 1023.3 1023.2 0.0
26/12:00pm 15.0 10.6 7.3 60 3.8 S 20 28 11 15 1023.5 1023.4 0.0
26/11:30am 14.6 9.8 7.2 61 3.6 SSW 22 33 12 18 1023.8 1023.7 0.0
26/11:00am 14.0 9.6 7.5 65 3.2 SSW 20 28 11 15 1024.0 1023.9 0.0
26/10:30am 13.5 9.3 7.3 66 3.0 S 19 28 10 15 1024.2 1024.1 0.0
26/10:00am 13.4 9.1 7.8 69 2.8 S 20 28 11 15 1024.3 1024.2 0.0
26/09:30am 13.3 8.9 7.5 68 2.8 SSW 20 32 11 17 1024.1 1024.0 0.0
26/09:00am 13.2 9.2 8.1 71 2.5 SSW 19 26 10 14 1024.1 1024.0 0.4
26/08:30am 12.2 8.6 8.5 78 1.8 SSW 17 24 9 13 1023.9 1023.8 0.4
26/08:00am 11.2 8.7 9.6 90 0.8 SW 13 17 7 9 1023.4 1023.3 0.4
26/07:30am 9.6 7.8 9.6 100 0.0 WSW 9 13 5 7 1022.9 1022.8 0.4
26/07:00am 8.3 6.2 8.3 100 0.0 SW 9 11 5 6 1022.5 1022.4 0.4
26/06:30am 8.1 5.6 8.1 100 0.0 WSW 11 13 6 7 1022.1 1022.0 0.4
26/06:00am 7.8 5.6 7.8 100 0.0 SW 9 11 5 6 1021.7 1021.6 0.4
26/05:30am 8.1 5.6 8.1 100 0.0 SW 11 13 6 7 1021.4 1021.3 0.4
26/05:00am 8.3 6.2 8.3 100 0.0 SW 9 11 5 6 1021.3 1021.2 0.4
26/04:30am 8.9 7.0 8.9 100 0.0 WSW 9 11 5 6 1021.0 1020.9 0.4
26/04:00am 9.8 7.7 9.8 100 0.0 WSW 11 15 6 8 1020.9 1020.8 0.4
26/03:30am 10.0 8.3 10.0 100 0.0 SSW 9 11 5 6 1020.6 1020.5 0.4
26/03:00am 10.3 8.6 10.0 98 0.2 SSW 9 13 5 7 1020.4 1020.3 0.4
26/02:30am 11.0 8.2 10.1 94 0.5 SSW 15 20 8 11 1020.3 1020.2 0.4
26/02:00am 11.2 7.4 9.9 92 0.7 SSW 20 32 11 17 1020.1 1020.0 0.4
26/01:30am 11.6 7.8 9.7 88 1.0 SSW 20 30 11 16 1020.0 1019.9 0.4
26/01:00am 11.6 8.0 9.9 89 0.9 SSW 19 28 10 15 1019.7 1019.6 0.4
26/12:30am 11.5 7.9 9.9 90 0.8 SSW 19 28 10 15 1019.3 1019.2 0.4
26/12:00am 11.7 8.9 10.1 90 0.8 SSW 15 20 8 11 1018.9 1018.8 0.4
 
Date/Time
CST
Temp
°C
App
Temp
°C
Dew
Point
Rel
Hum
%
Delta-T
°C
Wind Press
QNH
hPa
Press
MSL
hPa
Rain
since 9 am
mm
Dir
 
Spd
km/h
Gust
km/h
Spd
kts
Gust
kts
25/11:30pm 12.2 8.7 10.3 88 1.0 SSW 19 24 10 13 1018.9 1018.8 0.4
25/11:00pm 12.6 8.2 10.3 86 1.2 SSW 24 35 13 19 1018.7 1018.6 0.4
25/10:30pm 13.0 9.2 11.2 89 0.9 SSW 22 35 12 19 1018.5 1018.4 0.4
25/10:00pm 13.3 10.2 11.5 89 1.0 SSW 19 26 10 14 1018.5 1018.4 0.4
25/09:30pm 13.3 9.7 11.7 90 0.9 SSW 22 35 12 19 1017.9 1017.8 0.4
25/09:00pm 13.5 10.3 11.9 90 0.9 SW 20 32 11 17 1017.5 1017.4 0.4
25/08:30pm 13.4 10.2 11.3 87 1.1 SW 19 28 10 15 1017.0 1016.9 0.4
25/08:00pm 13.0 10.3 10.5 85 1.3 SW 15 26 8 14 1016.5 1016.4 0.4
25/07:30pm 12.2 9.9 10.4 89 0.9 WSW 13 17 7 9 1016.1 1016.0 0.4
25/07:00pm 12.3 9.7 9.3 82 1.5 WSW 13 15 7 8 1015.7 1015.6 0.4
25/06:30pm 12.6 10.8 9.4 81 1.6 WSW 9 9 5 5 1015.1 1015.1 0.4
25/06:00pm 13.4 11.6 9.6 78 1.9 SW 9 11 5 6 1014.4 1014.4 0.4
25/05:30pm 13.6 11.7 10.6 82 1.6 SW 11 13 6 7 1013.9 1013.9 0.4
25/05:00pm 13.9 13.1 11.6 86 1.2 SSW 7 9 4 5 1013.7 1013.7 0.4
25/04:30pm 14.8 11.0 9.2 69 2.9 SSW 19 32 10 17 1013.4 1013.4 0.2
25/04:00pm 15.7 11.9 7.5 58 4.1 SSW 17 24 9 13 1013.1 1013.1 0.2
25/03:30pm 15.7 11.5 7.5 58 4.1 SSW 19 26 10 14 1012.9 1012.9 0.2
25/03:00pm 15.5 9.1 6.8 56 4.3 SW 30 43 16 23 1012.8 1012.8 0.2

Other Formats:

Comma delimited format used in spreadsheet applications
http://www.bom.gov.au/fwo/IDS60801/IDS60801.95687.axf

JavaScript Object Notation format (JSON) in row-major order
http://www.bom.gov.au/fwo/IDS60801/IDS60801.95687.json